sensor_id;sensor_type;location;lat;lon;timestamp;P1;durP1;ratioP1;P2;durP2;ratioP2
10403;SDS011;5248;47.374;8.486;2023-08-06T00:01:34;2.80;;;2.60;;
10403;SDS011;5248;47.374;8.486;2023-08-06T00:04:00;2.78;;;2.55;;
10403;SDS011;5248;47.374;8.486;2023-08-06T00:06:26;2.55;;;2.35;;
10403;SDS011;5248;47.374;8.486;2023-08-06T00:08:53;2.60;;;2.50;;
10403;SDS011;5248;47.374;8.486;2023-08-06T00:11:20;2.83;;;2.63;;
10403;SDS011;5248;47.374;8.486;2023-08-06T00:13:46;2.92;;;2.70;;
10403;SDS011;5248;47.374;8.486;2023-08-06T00:16:14;2.55;;;2.38;;
10403;SDS011;5248;47.374;8.486;2023-08-06T00:18:40;2.78;;;2.58;;
10403;SDS011;5248;47.374;8.486;2023-08-06T00:21:07;2.65;;;2.45;;
10403;SDS011;5248;47.374;8.486;2023-08-06T00:23:33;3.60;;;3.30;;
10403;SDS011;5248;47.374;8.486;2023-08-06T00:26:00;2.97;;;2.78;;
10403;SDS011;5248;47.374;8.486;2023-08-06T00:28:26;2.63;;;2.42;;
10403;SDS011;5248;47.374;8.486;2023-08-06T00:30:53;2.63;;;2.42;;
10403;SDS011;5248;47.374;8.486;2023-08-06T00:33:21;2.67;;;2.58;;
10403;SDS011;5248;47.374;8.486;2023-08-06T00:35:47;2.63;;;2.53;;
10403;SDS011;5248;47.374;8.486;2023-08-06T00:38:14;3.08;;;2.75;;
10403;SDS011;5248;47.374;8.486;2023-08-06T00:40:40;3.65;;;2.58;;
10403;SDS011;5248;47.374;8.486;2023-08-06T00:43:07;2.70;;;2.50;;
10403;SDS011;5248;47.374;8.486;2023-08-06T00:45:34;3.00;;;2.70;;
10403;SDS011;5248;47.374;8.486;2023-08-06T00:48:03;2.95;;;2.10;;
10403;SDS011;5248;47.374;8.486;2023-08-06T00:50:32;2.67;;;2.45;;
10403;SDS011;5248;47.374;8.486;2023-08-06T00:52:59;2.42;;;2.33;;
10403;SDS011;5248;47.374;8.486;2023-08-06T00:55:26;2.60;;;2.03;;
10403;SDS011;5248;47.374;8.486;2023-08-06T00:57:52;2.38;;;2.10;;
10403;SDS011;5248;47.374;8.486;2023-08-06T01:00:21;2.40;;;2.28;;
10403;SDS011;5248;47.374;8.486;2023-08-06T01:02:48;3.30;;;2.33;;
10403;SDS011;5248;47.374;8.486;2023-08-06T01:05:14;2.75;;;2.55;;
10403;SDS011;5248;47.374;8.486;2023-08-06T01:07:44;4.20;;;2.50;;
10403;SDS011;5248;47.374;8.486;2023-08-06T01:10:20;2.65;;;2.45;;
10403;SDS011;5248;47.374;8.486;2023-08-06T01:12:52;2.50;;;2.30;;
10403;SDS011;5248;47.374;8.486;2023-08-06T01:15:23;3.30;;;2.65;;
10403;SDS011;5248;47.374;8.486;2023-08-06T01:17:51;2.72;;;2.50;;
10403;SDS011;5248;47.374;8.486;2023-08-06T01:20:18;2.60;;;2.40;;
10403;SDS011;5248;47.374;8.486;2023-08-06T01:22:46;3.70;;;2.03;;
10403;SDS011;5248;47.374;8.486;2023-08-06T01:25:12;2.80;;;2.17;;
10403;SDS011;5248;47.374;8.486;2023-08-06T01:27:43;2.00;;;1.90;;
10403;SDS011;5248;47.374;8.486;2023-08-06T01:30:11;1.90;;;1.80;;
10403;SDS011;5248;47.374;8.486;2023-08-06T01:32:39;2.47;;;2.25;;
10403;SDS011;5248;47.374;8.486;2023-08-06T01:35:08;2.17;;;1.90;;
10403;SDS011;5248;47.374;8.486;2023-08-06T01:37:36;2.30;;;2.00;;
10403;SDS011;5248;47.374;8.486;2023-08-06T01:40:07;2.17;;;2.08;;
10403;SDS011;5248;47.374;8.486;2023-08-06T01:42:36;2.55;;;2.35;;
10403;SDS011;5248;47.374;8.486;2023-08-06T01:45:02;2.33;;;2.17;;
10403;SDS011;5248;47.374;8.486;2023-08-06T01:47:29;2.42;;;2.22;;
10403;SDS011;5248;47.374;8.486;2023-08-06T01:49:55;1.93;;;1.83;;
10403;SDS011;5248;47.374;8.486;2023-08-06T01:52:22;1.80;;;1.70;;
10403;SDS011;5248;47.374;8.486;2023-08-06T01:54:48;1.90;;;1.80;;
10403;SDS011;5248;47.374;8.486;2023-08-06T01:57:16;2.90;;;1.67;;
10403;SDS011;5248;47.374;8.486;2023-08-06T01:59:42;3.03;;;2.20;;
10403;SDS011;5248;47.374;8.486;2023-08-06T02:02:09;2.08;;;1.98;;
10403;SDS011;5248;47.374;8.486;2023-08-06T02:04:35;2.22;;;2.03;;
10403;SDS011;5248;47.374;8.486;2023-08-06T02:07:02;1.65;;;1.55;;
10403;SDS011;5248;47.374;8.486;2023-08-06T02:09:28;3.05;;;2.20;;
10403;SDS011;5248;47.374;8.486;2023-08-06T02:11:55;2.00;;;1.90;;
10403;SDS011;5248;47.374;8.486;2023-08-06T02:14:22;3.92;;;1.83;;
10403;SDS011;5248;47.374;8.486;2023-08-06T02:16:49;2.30;;;2.10;;
10403;SDS011;5248;47.374;8.486;2023-08-06T02:19:15;4.80;;;1.97;;
10403;SDS011;5248;47.374;8.486;2023-08-06T02:21:42;3.55;;;1.95;;
10403;SDS011;5248;47.374;8.486;2023-08-06T02:24:08;2.28;;;1.90;;
10403;SDS011;5248;47.374;8.486;2023-08-06T02:26:35;1.80;;;1.70;;
10403;SDS011;5248;47.374;8.486;2023-08-06T02:29:01;3.08;;;1.92;;
10403;SDS011;5248;47.374;8.486;2023-08-06T02:31:29;2.57;;;2.13;;
10403;SDS011;5248;47.374;8.486;2023-08-06T02:33:58;3.10;;;2.20;;
10403;SDS011;5248;47.374;8.486;2023-08-06T02:36:24;1.90;;;1.40;;
10403;SDS011;5248;47.374;8.486;2023-08-06T02:38:54;1.80;;;1.67;;
10403;SDS011;5248;47.374;8.486;2023-08-06T02:41:20;1.60;;;1.50;;
10403;SDS011;5248;47.374;8.486;2023-08-06T02:43:47;1.27;;;1.27;;
10403;SDS011;5248;47.374;8.486;2023-08-06T02:46:13;2.35;;;1.33;;
10403;SDS011;5248;47.374;8.486;2023-08-06T02:48:41;1.60;;;1.50;;
10403;SDS011;5248;47.374;8.486;2023-08-06T02:51:07;1.60;;;1.50;;
10403;SDS011;5248;47.374;8.486;2023-08-06T02:53:34;1.97;;;1.70;;
10403;SDS011;5248;47.374;8.486;2023-08-06T02:56:00;1.40;;;1.30;;
10403;SDS011;5248;47.374;8.486;2023-08-06T02:58:26;1.83;;;1.20;;
10403;SDS011;5248;47.374;8.486;2023-08-06T03:00:59;1.73;;;1.20;;
10403;SDS011;5248;47.374;8.486;2023-08-06T03:03:27;2.08;;;1.25;;
10403;SDS011;5248;47.374;8.486;2023-08-06T03:05:56;1.40;;;1.30;;
10403;SDS011;5248;47.374;8.486;2023-08-06T03:08:22;1.63;;;1.53;;
10403;SDS011;5248;47.374;8.486;2023-08-06T03:10:49;1.52;;;1.42;;
10403;SDS011;5248;47.374;8.486;2023-08-06T03:13:16;2.20;;;1.40;;
10403;SDS011;5248;47.374;8.486;2023-08-06T03:15:42;1.50;;;1.40;;
10403;SDS011;5248;47.374;8.486;2023-08-06T03:18:09;1.58;;;1.48;;
10403;SDS011;5248;47.374;8.486;2023-08-06T03:20:35;2.15;;;1.95;;
10403;SDS011;5248;47.374;8.486;2023-08-06T03:23:03;1.57;;;1.47;;
10403;SDS011;5248;47.374;8.486;2023-08-06T03:25:29;1.63;;;1.52;;
10403;SDS011;5248;47.374;8.486;2023-08-06T03:27:56;2.22;;;1.30;;
10403;SDS011;5248;47.374;8.486;2023-08-06T03:30:22;1.40;;;1.30;;
10403;SDS011;5248;47.374;8.486;2023-08-06T03:32:49;1.50;;;1.27;;
10403;SDS011;5248;47.374;8.486;2023-08-06T03:35:15;2.35;;;1.60;;
10403;SDS011;5248;47.374;8.486;2023-08-06T03:37:42;1.60;;;1.50;;
10403;SDS011;5248;47.374;8.486;2023-08-06T03:40:10;1.73;;;1.57;;
10403;SDS011;5248;47.374;8.486;2023-08-06T03:42:36;1.83;;;1.73;;
10403;SDS011;5248;47.374;8.486;2023-08-06T03:45:04;1.35;;;1.25;;
10403;SDS011;5248;47.374;8.486;2023-08-06T03:47:31;1.60;;;1.50;;
10403;SDS011;5248;47.374;8.486;2023-08-06T03:49:57;1.63;;;1.50;;
10403;SDS011;5248;47.374;8.486;2023-08-06T03:52:24;1.70;;;1.50;;
10403;SDS011;5248;47.374;8.486;2023-08-06T03:54:50;3.20;;;1.48;;
10403;SDS011;5248;47.374;8.486;2023-08-06T03:57:18;1.02;;;0.93;;
10403;SDS011;5248;47.374;8.486;2023-08-06T03:59:45;2.17;;;1.77;;
10403;SDS011;5248;47.374;8.486;2023-08-06T04:02:11;1.98;;;1.20;;
10403;SDS011;5248;47.374;8.486;2023-08-06T04:04:37;1.40;;;1.30;;
10403;SDS011;5248;47.374;8.486;2023-08-06T04:07:04;1.40;;;1.30;;
10403;SDS011;5248;47.374;8.486;2023-08-06T04:09:31;1.50;;;1.40;;
10403;SDS011;5248;47.374;8.486;2023-08-06T04:11:57;2.90;;;1.70;;
10403;SDS011;5248;47.374;8.486;2023-08-06T04:14:27;2.07;;;1.47;;
10403;SDS011;5248;47.374;8.486;2023-08-06T04:16:54;1.80;;;1.17;;
10403;SDS011;5248;47.374;8.486;2023-08-06T04:19:20;1.03;;;0.93;;
10403;SDS011;5248;47.374;8.486;2023-08-06T04:21:47;1.52;;;1.42;;
10403;SDS011;5248;47.374;8.486;2023-08-06T04:24:13;1.50;;;1.40;;
10403;SDS011;5248;47.374;8.486;2023-08-06T04:26:39;1.65;;;1.55;;
10403;SDS011;5248;47.374;8.486;2023-08-06T04:29:06;1.50;;;1.40;;
10403;SDS011;5248;47.374;8.486;2023-08-06T04:31:34;1.38;;;1.30;;
10403;SDS011;5248;47.374;8.486;2023-08-06T04:34:00;1.50;;;1.40;;
10403;SDS011;5248;47.374;8.486;2023-08-06T04:36:27;1.65;;;1.15;;
10403;SDS011;5248;47.374;8.486;2023-08-06T04:38:53;1.95;;;1.30;;
10403;SDS011;5248;47.374;8.486;2023-08-06T04:41:20;3.20;;;1.05;;
10403;SDS011;5248;47.374;8.486;2023-08-06T04:43:46;1.30;;;0.88;;
10403;SDS011;5248;47.374;8.486;2023-08-06T04:46:13;1.37;;;0.90;;
10403;SDS011;5248;47.374;8.486;2023-08-06T04:48:40;2.17;;;0.90;;
10403;SDS011;5248;47.374;8.486;2023-08-06T04:51:07;0.93;;;0.60;;
10403;SDS011;5248;47.374;8.486;2023-08-06T04:53:33;3.83;;;0.90;;
10403;SDS011;5248;47.374;8.486;2023-08-06T04:56:00;1.00;;;0.65;;
10403;SDS011;5248;47.374;8.486;2023-08-06T04:58:26;1.95;;;0.63;;
10403;SDS011;5248;47.374;8.486;2023-08-06T05:00:53;1.03;;;0.50;;
10403;SDS011;5248;47.374;8.486;2023-08-06T05:03:20;2.27;;;1.00;;
10403;SDS011;5248;47.374;8.486;2023-08-06T05:05:47;2.03;;;0.70;;
10403;SDS011;5248;47.374;8.486;2023-08-06T05:08:15;1.63;;;0.70;;
10403;SDS011;5248;47.374;8.486;2023-08-06T05:10:42;0.87;;;0.67;;
10403;SDS011;5248;47.374;8.486;2023-08-06T05:13:09;2.37;;;0.70;;
10403;SDS011;5248;47.374;8.486;2023-08-06T05:15:36;2.10;;;0.80;;
10403;SDS011;5248;47.374;8.486;2023-08-06T05:18:02;2.10;;;0.60;;
10403;SDS011;5248;47.374;8.486;2023-08-06T05:20:30;2.40;;;0.63;;
10403;SDS011;5248;47.374;8.486;2023-08-06T05:22:58;0.37;;;0.37;;
10403;SDS011;5248;47.374;8.486;2023-08-06T05:25:24;1.63;;;0.60;;
10403;SDS011;5248;47.374;8.486;2023-08-06T05:27:51;0.57;;;0.37;;
10403;SDS011;5248;47.374;8.486;2023-08-06T05:30:18;1.33;;;0.60;;
10403;SDS011;5248;47.374;8.486;2023-08-06T05:32:44;1.60;;;0.60;;
10403;SDS011;5248;47.374;8.486;2023-08-06T05:35:11;1.03;;;0.47;;
10403;SDS011;5248;47.374;8.486;2023-08-06T05:37:37;1.17;;;0.70;;
10403;SDS011;5248;47.374;8.486;2023-08-06T05:40:06;0.83;;;0.40;;
10403;SDS011;5248;47.374;8.486;2023-08-06T05:42:33;0.77;;;0.40;;
10403;SDS011;5248;47.374;8.486;2023-08-06T05:44:59;0.60;;;0.50;;
10403;SDS011;5248;47.374;8.486;2023-08-06T05:47:26;1.13;;;0.70;;
10403;SDS011;5248;47.374;8.486;2023-08-06T05:49:52;1.60;;;0.60;;
10403;SDS011;5248;47.374;8.486;2023-08-06T05:52:18;1.03;;;0.73;;
10403;SDS011;5248;47.374;8.486;2023-08-06T05:54:45;1.67;;;0.63;;
10403;SDS011;5248;47.374;8.486;2023-08-06T05:57:13;1.47;;;0.47;;
10403;SDS011;5248;47.374;8.486;2023-08-06T05:59:40;0.90;;;0.40;;
10403;SDS011;5248;47.374;8.486;2023-08-06T06:02:06;1.17;;;0.40;;
10403;SDS011;5248;47.374;8.486;2023-08-06T06:04:33;0.83;;;0.50;;
10403;SDS011;5248;47.374;8.486;2023-08-06T06:06:59;0.77;;;0.73;;
10403;SDS011;5248;47.374;8.486;2023-08-06T06:09:26;1.00;;;0.60;;
10403;SDS011;5248;47.374;8.486;2023-08-06T06:11:53;0.90;;;0.73;;
10403;SDS011;5248;47.374;8.486;2023-08-06T06:14:20;1.33;;;0.60;;
10403;SDS011;5248;47.374;8.486;2023-08-06T06:16:47;1.07;;;0.60;;
10403;SDS011;5248;47.374;8.486;2023-08-06T06:19:13;0.95;;;0.55;;
10403;SDS011;5248;47.374;8.486;2023-08-06T06:21:40;1.13;;;0.53;;
10403;SDS011;5248;47.374;8.486;2023-08-06T06:24:06;1.80;;;0.50;;
10403;SDS011;5248;47.374;8.486;2023-08-06T06:26:33;2.25;;;0.70;;
10403;SDS011;5248;47.374;8.486;2023-08-06T06:28:59;1.20;;;0.60;;
10403;SDS011;5248;47.374;8.486;2023-08-06T06:31:27;0.85;;;0.50;;
10403;SDS011;5248;47.374;8.486;2023-08-06T06:33:54;0.60;;;0.50;;
10403;SDS011;5248;47.374;8.486;2023-08-06T06:36:20;1.35;;;0.70;;
10403;SDS011;5248;47.374;8.486;2023-08-06T06:38:48;1.88;;;0.63;;
10403;SDS011;5248;47.374;8.486;2023-08-06T06:41:15;2.45;;;0.73;;
10403;SDS011;5248;47.374;8.486;2023-08-06T06:43:42;0.80;;;0.60;;
10403;SDS011;5248;47.374;8.486;2023-08-06T06:46:08;0.77;;;0.70;;
10403;SDS011;5248;47.374;8.486;2023-08-06T06:48:36;1.27;;;0.52;;
10403;SDS011;5248;47.374;8.486;2023-08-06T06:51:03;1.65;;;0.80;;
10403;SDS011;5248;47.374;8.486;2023-08-06T06:53:29;0.30;;;0.28;;
10403;SDS011;5248;47.374;8.486;2023-08-06T06:55:56;1.30;;;0.60;;
10403;SDS011;5248;47.374;8.486;2023-08-06T06:58:22;0.90;;;0.65;;
10403;SDS011;5248;47.374;8.486;2023-08-06T07:00:49;1.67;;;0.55;;
10403;SDS011;5248;47.374;8.486;2023-08-06T07:03:15;2.20;;;0.60;;
10403;SDS011;5248;47.374;8.486;2023-08-06T07:05:44;1.00;;;0.50;;
10403;SDS011;5248;47.374;8.486;2023-08-06T07:08:10;1.02;;;0.60;;
10403;SDS011;5248;47.374;8.486;2023-08-06T07:10:37;2.63;;;0.63;;
10403;SDS011;5248;47.374;8.486;2023-08-06T07:13:04;2.28;;;0.43;;
10403;SDS011;5248;47.374;8.486;2023-08-06T07:15:31;2.03;;;0.43;;
10403;SDS011;5248;47.374;8.486;2023-08-06T07:17:58;0.50;;;0.43;;
10403;SDS011;5248;47.374;8.486;2023-08-06T07:20:24;0.88;;;0.50;;
10403;SDS011;5248;47.374;8.486;2023-08-06T07:22:52;1.27;;;0.55;;
10403;SDS011;5248;47.374;8.486;2023-08-06T07:25:18;1.25;;;0.90;;
10403;SDS011;5248;47.374;8.486;2023-08-06T07:27:45;1.10;;;0.50;;
10403;SDS011;5248;47.374;8.486;2023-08-06T07:30:11;1.13;;;1.03;;
10403;SDS011;5248;47.374;8.486;2023-08-06T07:32:38;1.15;;;1.05;;
10403;SDS011;5248;47.374;8.486;2023-08-06T07:35:05;0.88;;;0.50;;
10403;SDS011;5248;47.374;8.486;2023-08-06T07:37:33;0.73;;;0.33;;
10403;SDS011;5248;47.374;8.486;2023-08-06T07:40:01;1.05;;;0.70;;
10403;SDS011;5248;47.374;8.486;2023-08-06T07:42:27;0.93;;;0.30;;
10403;SDS011;5248;47.374;8.486;2023-08-06T07:44:53;0.82;;;0.30;;
10403;SDS011;5248;47.374;8.486;2023-08-06T07:47:20;2.40;;;0.40;;
10403;SDS011;5248;47.374;8.486;2023-08-06T07:49:47;1.75;;;0.40;;
10403;SDS011;5248;47.374;8.486;2023-08-06T07:52:13;1.20;;;0.50;;
10403;SDS011;5248;47.374;8.486;2023-08-06T07:54:40;1.25;;;0.30;;
10403;SDS011;5248;47.374;8.486;2023-08-06T07:57:08;1.05;;;0.60;;
10403;SDS011;5248;47.374;8.486;2023-08-06T07:59:35;0.60;;;0.38;;
10403;SDS011;5248;47.374;8.486;2023-08-06T08:02:01;1.05;;;0.35;;
10403;SDS011;5248;47.374;8.486;2023-08-06T08:04:29;1.47;;;0.60;;
10403;SDS011;5248;47.374;8.486;2023-08-06T08:06:55;0.90;;;0.40;;
10403;SDS011;5248;47.374;8.486;2023-08-06T08:09:22;1.20;;;0.60;;
10403;SDS011;5248;47.374;8.486;2023-08-06T08:11:48;0.90;;;0.30;;
10403;SDS011;5248;47.374;8.486;2023-08-06T08:14:16;0.40;;;0.30;;
10403;SDS011;5248;47.374;8.486;2023-08-06T08:16:43;0.53;;;0.43;;
10403;SDS011;5248;47.374;8.486;2023-08-06T08:19:09;1.00;;;0.67;;
10403;SDS011;5248;47.374;8.486;2023-08-06T08:21:35;1.77;;;1.40;;
10403;SDS011;5248;47.374;8.486;2023-08-06T08:24:03;1.60;;;0.57;;
10403;SDS011;5248;47.374;8.486;2023-08-06T08:26:30;1.57;;;0.60;;
10403;SDS011;5248;47.374;8.486;2023-08-06T08:28:56;0.40;;;0.40;;
10403;SDS011;5248;47.374;8.486;2023-08-06T08:31:24;1.27;;;0.70;;
10403;SDS011;5248;47.374;8.486;2023-08-06T08:33:50;0.60;;;0.50;;
10403;SDS011;5248;47.374;8.486;2023-08-06T08:36:18;0.43;;;0.40;;
10403;SDS011;5248;47.374;8.486;2023-08-06T08:38:45;0.87;;;0.27;;
10403;SDS011;5248;47.374;8.486;2023-08-06T08:41:11;1.23;;;0.40;;
10403;SDS011;5248;47.374;8.486;2023-08-06T08:43:38;0.30;;;0.30;;
10403;SDS011;5248;47.374;8.486;2023-08-06T08:46:06;2.50;;;0.30;;
10403;SDS011;5248;47.374;8.486;2023-08-06T08:48:35;2.07;;;0.50;;
10403;SDS011;5248;47.374;8.486;2023-08-06T08:51:03;1.90;;;0.73;;
10403;SDS011;5248;47.374;8.486;2023-08-06T08:53:30;0.70;;;0.40;;
10403;SDS011;5248;47.374;8.486;2023-08-06T08:55:57;2.70;;;0.60;;
10403;SDS011;5248;47.374;8.486;2023-08-06T08:58:24;1.47;;;0.47;;
10403;SDS011;5248;47.374;8.486;2023-08-06T09:00:51;0.60;;;0.50;;
10403;SDS011;5248;47.374;8.486;2023-08-06T09:03:18;0.30;;;0.30;;
10403;SDS011;5248;47.374;8.486;2023-08-06T09:05:46;1.27;;;0.70;;
10403;SDS011;5248;47.374;8.486;2023-08-06T09:08:15;2.47;;;0.63;;
10403;SDS011;5248;47.374;8.486;2023-08-06T09:10:44;1.20;;;0.60;;
10403;SDS011;5248;47.374;8.486;2023-08-06T09:13:10;2.63;;;0.80;;
10403;SDS011;5248;47.374;8.486;2023-08-06T09:15:37;1.40;;;0.30;;
10403;SDS011;5248;47.374;8.486;2023-08-06T09:18:08;1.20;;;0.60;;
10403;SDS011;5248;47.374;8.486;2023-08-06T09:20:35;0.80;;;0.57;;
10403;SDS011;5248;47.374;8.486;2023-08-06T09:23:10;2.10;;;0.50;;
10403;SDS011;5248;47.374;8.486;2023-08-06T09:25:38;0.50;;;0.40;;
10403;SDS011;5248;47.374;8.486;2023-08-06T09:28:05;0.20;;;0.20;;
10403;SDS011;5248;47.374;8.486;2023-08-06T09:30:32;0.60;;;0.33;;
10403;SDS011;5248;47.374;8.486;2023-08-06T09:33:00;0.57;;;0.40;;
10403;SDS011;5248;47.374;8.486;2023-08-06T09:35:28;1.02;;;0.30;;
10403;SDS011;5248;47.374;8.486;2023-08-06T09:37:54;0.50;;;0.40;;
10403;SDS011;5248;47.374;8.486;2023-08-06T09:40:26;0.70;;;0.50;;
10403;SDS011;5248;47.374;8.486;2023-08-06T09:42:53;0.67;;;0.30;;
10403;SDS011;5248;47.374;8.486;2023-08-06T09:45:20;1.50;;;0.30;;
10403;SDS011;5248;47.374;8.486;2023-08-06T09:47:49;1.50;;;0.83;;
10403;SDS011;5248;47.374;8.486;2023-08-06T09:50:16;0.37;;;0.10;;
10403;SDS011;5248;47.374;8.486;2023-08-06T09:52:43;0.20;;;0.20;;
10403;SDS011;5248;47.374;8.486;2023-08-06T09:55:10;0.10;;;0.10;;
10403;SDS011;5248;47.374;8.486;2023-08-06T09:57:39;1.47;;;0.90;;
10403;SDS011;5248;47.374;8.486;2023-08-06T10:00:07;1.42;;;0.57;;
10403;SDS011;5248;47.374;8.486;2023-08-06T10:02:35;0.17;;;0.13;;
10403;SDS011;5248;47.374;8.486;2023-08-06T10:05:02;0.43;;;0.20;;
10403;SDS011;5248;47.374;8.486;2023-08-06T10:07:29;1.17;;;0.20;;
10403;SDS011;5248;47.374;8.486;2023-08-06T10:09:56;0.20;;;0.20;;
10403;SDS011;5248;47.374;8.486;2023-08-06T10:12:24;0.57;;;0.52;;
10403;SDS011;5248;47.374;8.486;2023-08-06T10:14:53;0.47;;;0.10;;
10403;SDS011;5248;47.374;8.486;2023-08-06T10:17:21;0.27;;;0.20;;
10403;SDS011;5248;47.374;8.486;2023-08-06T10:19:48;0.20;;;0.20;;
10403;SDS011;5248;47.374;8.486;2023-08-06T10:22:15;0.50;;;0.30;;
10403;SDS011;5248;47.374;8.486;2023-08-06T10:24:49;0.30;;;0.30;;
10403;SDS011;5248;47.374;8.486;2023-08-06T10:27:19;0.20;;;0.20;;
10403;SDS011;5248;47.374;8.486;2023-08-06T10:29:47;0.33;;;0.33;;
10403;SDS011;5248;47.374;8.486;2023-08-06T10:32:15;0.73;;;0.23;;
10403;SDS011;5248;47.374;8.486;2023-08-06T10:34:56;0.60;;;0.50;;
10403;SDS011;5248;47.374;8.486;2023-08-06T10:37:23;0.20;;;0.20;;
10403;SDS011;5248;47.374;8.486;2023-08-06T10:39:50;0.23;;;0.20;;
10403;SDS011;5248;47.374;8.486;2023-08-06T10:42:20;0.30;;;0.30;;
10403;SDS011;5248;47.374;8.486;2023-08-06T10:47:44;0.70;;;0.30;;
10403;SDS011;5248;47.374;8.486;2023-08-06T10:50:12;0.17;;;0.17;;
10403;SDS011;5248;47.374;8.486;2023-08-06T10:52:41;0.40;;;0.40;;
10403;SDS011;5248;47.374;8.486;2023-08-06T10:55:08;0.43;;;0.40;;
10403;SDS011;5248;47.374;8.486;2023-08-06T10:57:35;0.40;;;0.40;;
10403;SDS011;5248;47.374;8.486;2023-08-06T11:00:03;0.30;;;0.20;;
10403;SDS011;5248;47.374;8.486;2023-08-06T11:02:32;0.20;;;0.20;;
10403;SDS011;5248;47.374;8.486;2023-08-06T11:05:05;0.50;;;0.30;;
10403;SDS011;5248;47.374;8.486;2023-08-06T11:07:32;0.70;;;0.43;;
10403;SDS011;5248;47.374;8.486;2023-08-06T11:10:02;0.10;;;0.10;;
10403;SDS011;5248;47.374;8.486;2023-08-06T11:12:29;0.20;;;0.20;;
10403;SDS011;5248;47.374;8.486;2023-08-06T11:14:56;0.17;;;0.17;;
10403;SDS011;5248;47.374;8.486;2023-08-06T11:17:22;0.30;;;0.27;;
10403;SDS011;5248;47.374;8.486;2023-08-06T11:19:49;0.30;;;0.30;;
10403;SDS011;5248;47.374;8.486;2023-08-06T11:22:18;0.30;;;0.30;;
10403;SDS011;5248;47.374;8.486;2023-08-06T11:24:44;0.90;;;0.47;;
10403;SDS011;5248;47.374;8.486;2023-08-06T11:27:11;0.20;;;0.20;;
10403;SDS011;5248;47.374;8.486;2023-08-06T11:29:39;0.20;;;0.20;;
10403;SDS011;5248;47.374;8.486;2023-08-06T11:32:06;0.20;;;0.20;;
10403;SDS011;5248;47.374;8.486;2023-08-06T11:34:33;1.40;;;0.30;;
10403;SDS011;5248;47.374;8.486;2023-08-06T11:36:59;0.20;;;0.20;;
10403;SDS011;5248;47.374;8.486;2023-08-06T11:39:27;0.73;;;0.50;;
10403;SDS011;5248;47.374;8.486;2023-08-06T11:41:53;1.02;;;0.50;;
10403;SDS011;5248;47.374;8.486;2023-08-06T11:44:21;0.30;;;0.30;;
10403;SDS011;5248;47.374;8.486;2023-08-06T11:46:50;0.20;;;0.20;;
10403;SDS011;5248;47.374;8.486;2023-08-06T11:49:17;0.43;;;0.43;;
10403;SDS011;5248;47.374;8.486;2023-08-06T11:51:46;0.25;;;0.25;;
10403;SDS011;5248;47.374;8.486;2023-08-06T11:54:13;0.47;;;0.30;;
10403;SDS011;5248;47.374;8.486;2023-08-06T11:56:41;0.60;;;0.27;;
10403;SDS011;5248;47.374;8.486;2023-08-06T11:59:08;0.35;;;0.30;;
10403;SDS011;5248;47.374;8.486;2023-08-06T12:01:35;0.30;;;0.30;;
10403;SDS011;5248;47.374;8.486;2023-08-06T12:04:01;0.43;;;0.30;;
10403;SDS011;5248;47.374;8.486;2023-08-06T12:06:30;0.40;;;0.40;;
10403;SDS011;5248;47.374;8.486;2023-08-06T12:08:56;0.40;;;0.40;;
10403;SDS011;5248;47.374;8.486;2023-08-06T12:11:23;0.40;;;0.40;;
10403;SDS011;5248;47.374;8.486;2023-08-06T12:13:51;0.43;;;0.35;;
10403;SDS011;5248;47.374;8.486;2023-08-06T12:16:18;0.68;;;0.50;;
10403;SDS011;5248;47.374;8.486;2023-08-06T12:18:46;0.80;;;0.80;;
10403;SDS011;5248;47.374;8.486;2023-08-06T12:21:13;1.13;;;0.27;;
10403;SDS011;5248;47.374;8.486;2023-08-06T12:23:40;0.20;;;0.20;;
10403;SDS011;5248;47.374;8.486;2023-08-06T12:26:07;0.30;;;0.30;;
10403;SDS011;5248;47.374;8.486;2023-08-06T12:28:33;0.25;;;0.25;;
10403;SDS011;5248;47.374;8.486;2023-08-06T12:31:01;0.27;;;0.27;;
10403;SDS011;5248;47.374;8.486;2023-08-06T12:33:27;0.28;;;0.28;;
10403;SDS011;5248;47.374;8.486;2023-08-06T12:35:54;1.45;;;0.20;;
10403;SDS011;5248;47.374;8.486;2023-08-06T12:38:20;0.50;;;0.30;;
10403;SDS011;5248;47.374;8.486;2023-08-06T12:40:47;0.30;;;0.30;;
10403;SDS011;5248;47.374;8.486;2023-08-06T12:43:13;0.32;;;0.10;;
10403;SDS011;5248;47.374;8.486;2023-08-06T12:45:40;0.63;;;0.33;;
10403;SDS011;5248;47.374;8.486;2023-08-06T12:48:07;1.63;;;0.30;;
10403;SDS011;5248;47.374;8.486;2023-08-06T12:50:34;0.30;;;0.30;;
10403;SDS011;5248;47.374;8.486;2023-08-06T12:53:00;0.20;;;0.20;;
10403;SDS011;5248;47.374;8.486;2023-08-06T12:55:28;0.50;;;0.30;;
10403;SDS011;5248;47.374;8.486;2023-08-06T12:57:55;0.43;;;0.23;;
10403;SDS011;5248;47.374;8.486;2023-08-06T13:00:21;0.87;;;0.70;;
10403;SDS011;5248;47.374;8.486;2023-08-06T13:02:48;0.77;;;0.40;;
10403;SDS011;5248;47.374;8.486;2023-08-06T13:05:15;0.20;;;0.20;;
10403;SDS011;5248;47.374;8.486;2023-08-06T13:07:42;0.33;;;0.33;;
10403;SDS011;5248;47.374;8.486;2023-08-06T13:10:09;0.40;;;0.40;;
10403;SDS011;5248;47.374;8.486;2023-08-06T13:12:35;0.67;;;0.37;;
10403;SDS011;5248;47.374;8.486;2023-08-06T13:15:02;0.40;;;0.40;;
10403;SDS011;5248;47.374;8.486;2023-08-06T13:17:29;0.70;;;0.40;;
10403;SDS011;5248;47.374;8.486;2023-08-06T13:19:56;1.80;;;0.40;;
10403;SDS011;5248;47.374;8.486;2023-08-06T13:22:24;0.53;;;0.53;;
10403;SDS011;5248;47.374;8.486;2023-08-06T13:24:50;0.40;;;0.40;;
10403;SDS011;5248;47.374;8.486;2023-08-06T13:27:17;0.40;;;0.40;;
10403;SDS011;5248;47.374;8.486;2023-08-06T13:29:43;0.40;;;0.40;;
10403;SDS011;5248;47.374;8.486;2023-08-06T13:32:10;0.40;;;0.40;;
10403;SDS011;5248;47.374;8.486;2023-08-06T13:34:36;0.60;;;0.60;;
10403;SDS011;5248;47.374;8.486;2023-08-06T13:37:03;0.77;;;0.30;;
10403;SDS011;5248;47.374;8.486;2023-08-06T13:39:31;0.73;;;0.30;;
10403;SDS011;5248;47.374;8.486;2023-08-06T13:41:57;0.50;;;0.50;;
10403;SDS011;5248;47.374;8.486;2023-08-06T13:44:23;0.47;;;0.47;;
10403;SDS011;5248;47.374;8.486;2023-08-06T13:46:50;0.20;;;0.20;;
10403;SDS011;5248;47.374;8.486;2023-08-06T13:49:16;1.58;;;0.30;;
10403;SDS011;5248;47.374;8.486;2023-08-06T13:51:43;0.25;;;0.25;;
10403;SDS011;5248;47.374;8.486;2023-08-06T13:54:09;0.30;;;0.30;;
10403;SDS011;5248;47.374;8.486;2023-08-06T13:56:37;0.40;;;0.40;;
10403;SDS011;5248;47.374;8.486;2023-08-06T13:59:04;0.40;;;0.40;;
10403;SDS011;5248;47.374;8.486;2023-08-06T14:01:31;1.40;;;0.33;;
10403;SDS011;5248;47.374;8.486;2023-08-06T14:03:58;0.63;;;0.40;;
10403;SDS011;5248;47.374;8.486;2023-08-06T14:06:24;0.90;;;0.30;;
10403;SDS011;5248;47.374;8.486;2023-08-06T14:08:51;1.65;;;0.43;;
10403;SDS011;5248;47.374;8.486;2023-08-06T14:11:17;0.63;;;0.47;;
10403;SDS011;5248;47.374;8.486;2023-08-06T14:13:45;0.40;;;0.40;;
10403;SDS011;5248;47.374;8.486;2023-08-06T14:16:11;0.45;;;0.32;;
10403;SDS011;5248;47.374;8.486;2023-08-06T14:18:38;0.52;;;0.30;;
10403;SDS011;5248;47.374;8.486;2023-08-06T14:21:06;0.57;;;0.40;;
10403;SDS011;5248;47.374;8.486;2023-08-06T14:23:33;1.27;;;0.40;;
10403;SDS011;5248;47.374;8.486;2023-08-06T14:25:59;0.87;;;0.60;;
10403;SDS011;5248;47.374;8.486;2023-08-06T14:28:26;0.60;;;0.60;;
10403;SDS011;5248;47.374;8.486;2023-08-06T14:30:54;0.60;;;0.50;;
10403;SDS011;5248;47.374;8.486;2023-08-06T14:33:20;0.80;;;0.80;;
10403;SDS011;5248;47.374;8.486;2023-08-06T14:35:47;2.55;;;0.52;;
10403;SDS011;5248;47.374;8.486;2023-08-06T14:38:13;0.82;;;0.82;;
10403;SDS011;5248;47.374;8.486;2023-08-06T14:40:40;0.60;;;0.60;;
10403;SDS011;5248;47.374;8.486;2023-08-06T14:43:06;2.90;;;1.23;;
10403;SDS011;5248;47.374;8.486;2023-08-06T14:45:33;1.00;;;0.90;;
10403;SDS011;5248;47.374;8.486;2023-08-06T14:48:01;0.70;;;0.70;;
10403;SDS011;5248;47.374;8.486;2023-08-06T14:50:27;0.85;;;0.50;;
10403;SDS011;5248;47.374;8.486;2023-08-06T14:52:54;0.70;;;0.70;;
10403;SDS011;5248;47.374;8.486;2023-08-06T14:55:24;0.52;;;0.52;;
10403;SDS011;5248;47.374;8.486;2023-08-06T14:57:50;1.20;;;0.80;;
10403;SDS011;5248;47.374;8.486;2023-08-06T15:00:17;0.82;;;0.82;;
10403;SDS011;5248;47.374;8.486;2023-08-06T15:02:44;2.03;;;0.80;;